Time;durP1;ratioP1;P1;durP2;ratioP2;P2;SDS_P1;SDS_P2;PMS_P1;PMS_P2;Temp;Humidity;BMP_temperature;BMP_pressure;BME280_temperature;BME280_humidity;BME280_pressure;Samples;Min_cycle;Max_cycle;Signal;HPM_P1;HPM_P2
2022/07/31 00:05:15;;;;;;;7.22;3.92;;;;;;;23.03;59.25;100080.34;18562310;32;20110;-56
2022/07/31 00:15:18;;;;;;;7.20;3.45;;;;;;;22.72;61.04;100071.53;18561997;32;20104;-56
2022/07/31 00:25:23;;;;;;;6.65;3.08;;;;;;;22.86;58.51;100070.72;18556503;32;20107;-57
2022/07/31 00:35:26;;;;;;;6.75;3.25;;;;;;;22.69;59.53;100064.59;18561833;32;20657;-56
2022/07/31 00:45:31;;;;;;;7.22;2.85;;;;;;;22.64;59.63;100074.66;18560666;32;20100;-56
2022/07/31 00:55:34;;;;;;;4.90;2.45;;;;;;;22.80;58.47;100077.25;18558595;32;20089;-56
2022/07/31 01:05:59;;;;;;;3.05;2.00;;;;;;;22.75;57.61;100075.81;18559878;32;20178;-56
2022/07/31 01:16:03;;;;;;;4.28;1.95;;;;;;;22.85;56.43;100074.34;18560251;32;20115;-56
2022/07/31 01:26:19;;;;;;;3.70;1.87;;;;;;;22.90;55.57;100071.41;18559911;32;20097;-57
2022/07/31 01:36:27;;;;;;;4.78;2.10;;;;;;;22.90;55.98;100072.25;18544972;32;20122;-57
2022/07/31 01:46:31;;;;;;;3.90;1.80;;;;;;;22.84;56.12;100084.09;18559257;32;20073;-56
2022/07/31 01:56:41;;;;;;;4.32;1.58;;;;;;;22.91;55.58;100070.44;18559204;32;20099;-56
2022/07/31 02:06:46;;;;;;;3.08;1.40;;;;;;;22.65;56.50;100063.06;18556988;31;20092;-57
2022/07/31 02:16:51;;;;;;;2.30;1.50;;;;;;;22.79;55.50;100064.91;18558106;32;20182;-56
2022/07/31 02:26:55;;;;;;;2.00;1.30;;;;;;;22.88;55.18;100058.19;18557610;32;20096;-56
2022/07/31 02:37:05;;;;;;;2.42;1.20;;;;;;;22.80;55.24;100055.97;18558149;32;20119;-57
2022/07/31 02:47:08;;;;;;;2.50;1.45;;;;;;;22.59;56.21;100050.09;18557593;32;20092;-56
2022/07/31 02:57:12;;;;;;;2.20;1.20;;;;;;;22.85;55.19;100051.22;18557251;32;20092;-57
2022/07/31 03:07:16;;;;;;;4.00;1.30;;;;;;;22.67;55.21;100049.66;18557322;32;20163;-56
2022/07/31 03:17:21;;;;;;;2.62;1.20;;;;;;;22.55;55.60;100049.44;18555858;32;20131;-56
2022/07/31 03:27:24;;;;;;;2.53;1.15;;;;;;;22.65;54.64;100057.75;18555196;32;20089;-56
2022/07/31 03:37:29;;;;;;;2.75;1.10;;;;;;;22.77;53.69;100050.84;18561883;32;20118;-56
2022/07/31 03:47:33;;;;;;;2.40;1.30;;;;;;;22.33;54.65;100048.94;18562612;32;20103;-56
2022/07/31 03:57:38;;;;;;;2.00;1.15;;;;;;;22.37;55.34;100043.34;18562522;32;20103;-56
2022/07/31 04:07:44;;;;;;;2.75;1.27;;;;;;;22.57;54.58;100044.91;18561688;32;20082;-56
2022/07/31 04:17:48;;;;;;;2.00;1.20;;;;;;;22.66;54.17;100054.13;18561822;32;20111;-56
2022/07/31 04:27:52;;;;;;;2.15;1.30;;;;;;;22.61;54.74;100060.66;18561670;32;20102;-56
2022/07/31 04:37:57;;;;;;;1.95;1.30;;;;;;;22.76;53.81;100065.06;18561451;32;20122;-56
2022/07/31 04:48:00;;;;;;;3.75;1.40;;;;;;;22.18;55.68;100065.66;18560239;32;20106;-56
2022/07/31 04:58:05;;;;;;;1.90;1.30;;;;;;;22.25;55.92;100052.03;18561752;32;20093;-56
2022/07/31 05:08:08;;;;;;;1.05;0.95;;;;;;;21.87;57.43;100059.41;18560495;32;20116;-56
2022/07/31 05:18:13;;;;;;;2.00;1.00;;;;;;;21.65;59.13;100064.13;18560235;32;20096;-56
2022/07/31 05:28:16;;;;;;;2.20;1.20;;;;;;;21.46;62.18;100068.66;18561164;32;20116;-56
2022/07/31 05:38:35;;;;;;;1.95;1.33;;;;;;;20.76;65.04;100058.91;18560847;32;20110;-56
2022/07/31 05:48:38;;;;;;;3.35;1.40;;;;;;;20.64;65.59;100054.22;18560031;32;20088;-56
2022/07/31 05:58:44;;;;;;;2.53;1.30;;;;;;;20.45;67.06;100048.97;18558980;32;20107;-56
2022/07/31 06:08:50;;;;;;;5.28;1.50;;;;;;;20.23;68.34;100053.53;18558921;32;20150;-55
2022/07/31 06:18:55;;;;;;;2.47;1.40;;;;;;;19.97;68.84;100044.19;18557679;32;20674;-56
2022/07/31 06:28:58;;;;;;;2.30;1.48;;;;;;;19.96;69.07;100048.59;18558093;32;20092;-55
2022/07/31 06:39:03;;;;;;;3.58;1.70;;;;;;;19.95;69.62;100056.66;18557413;32;20329;-56
2022/07/31 06:49:06;;;;;;;3.60;1.80;;;;;;;19.94;69.95;100054.94;18557543;32;20122;-56
2022/07/31 06:59:12;;;;;;;6.57;1.70;;;;;;;20.17;69.03;100063.56;18542759;32;20100;-56
2022/07/31 07:09:36;;;;;;;3.22;1.58;;;;;;;20.53;68.43;100057.41;18556737;31;20119;-56
2022/07/31 07:19:41;;;;;;;2.65;1.55;;;;;;;20.49;67.92;100055.84;18554769;32;20091;-56
2022/07/31 07:29:44;;;;;;;1.92;1.35;;;;;;;20.66;67.70;100045.25;18553197;32;20157;-55
2022/07/31 07:39:49;;;;;;;2.53;1.20;;;;;;;21.13;64.24;100031.47;18557401;32;20096;-55
2022/07/31 07:49:52;;;;;;;2.55;1.10;;;;;;;21.61;63.95;100034.22;18553477;32;20097;-55
2022/07/31 08:00:00;;;;;;;1.83;1.30;;;;;;;21.55;62.84;100039.88;18556723;32;20102;-56
2022/07/31 08:10:04;;;;;;;1.70;1.17;;;;;;;21.35;65.10;100040.00;18553361;32;20085;-55
2022/07/31 08:20:10;;;;;;;2.08;1.00;;;;;;;21.53;63.31;100036.44;18553639;32;20092;-57
2022/07/31 08:30:14;;;;;;;1.75;1.05;;;;;;;21.90;61.22;100040.63;18558512;32;20099;-56
2022/07/31 08:40:19;;;;;;;1.20;0.95;;;;;;;22.52;59.41;100043.41;18558803;32;20096;-55
2022/07/31 08:50:22;;;;;;;2.28;1.10;;;;;;;22.46;58.17;100065.88;18546278;32;20137;-56
2022/07/31 09:00:27;;;;;;;1.62;1.00;;;;;;;22.89;56.34;100075.00;18560832;32;20093;-55
2022/07/31 09:10:31;;;;;;;1.30;0.90;;;;;;;23.28;55.16;100081.59;18560310;32;20099;-56
2022/07/31 09:20:35;;;;;;;1.37;0.85;;;;;;;23.28;55.33;100092.22;18560352;32;20122;-56
2022/07/31 09:30:41;;;;;;;0.95;0.73;;;;;;;23.08;56.11;100091.59;18544553;32;20092;-56
2022/07/31 09:41:10;;;;;;;2.72;0.90;;;;;;;23.08;55.93;100104.91;18558870;32;20100;-55
2022/07/31 09:51:38;;;;;;;1.30;0.90;;;;;;;22.93;53.74;100111.13;18561025;32;20103;-55
2022/07/31 10:01:43;;;;;;;1.37;0.88;;;;;;;23.03;53.68;100112.28;18544953;32;20104;-55
2022/07/31 10:11:48;;;;;;;1.75;1.00;;;;;;;22.79;53.18;100103.94;18558898;32;20428;-55
2022/07/31 10:21:57;;;;;;;1.87;0.93;;;;;;;22.34;55.52;100106.47;18544292;31;20471;-55
2022/07/31 10:32:01;;;;;;;1.27;1.00;;;;;;;21.80;56.43;100091.69;18555845;32;20100;-55
2022/07/31 10:42:10;;;;;;;2.65;1.10;;;;;;;22.14;55.52;100111.13;18529803;32;20127;-55
2022/07/31 11:11:11;;;;;;;1.37;1.10;;;;;;;24.77;50.12;100151.38;18643033;31;73475;-54
2022/07/31 11:21:15;;;;;;;2.58;1.05;;;;;;;24.77;50.12;100151.38;18666813;31;20498;-55
2022/07/31 11:31:39;;;;;;;1.77;1.20;;;;;;;23.36;52.21;100169.84;18673347;31;20103;-54
2022/07/31 11:41:43;;;;;;;2.55;1.37;;;;;;;22.61;53.95;100194.50;18671931;31;20121;-55
2022/07/31 11:51:50;;;;;;;2.37;1.40;;;;;;;22.29;55.82;100179.41;18671477;31;20135;-55
2022/07/31 12:01:53;;;;;;;3.30;1.60;;;;;;;22.24;56.97;100186.75;18634070;31;20100;-54
2022/07/31 12:11:58;;;;;;;1.60;1.20;;;;;;;22.49;56.94;100214.69;18563037;31;20141;-55
2022/07/31 12:22:12;;;;;;;3.45;1.62;;;;;;;22.47;57.28;100240.47;18564038;32;20115;-55
2022/07/31 12:32:24;;;;;;;2.17;1.50;;;;;;;22.37;58.82;100249.88;18564728;32;20119;-55
2022/07/31 12:42:29;;;;;;;2.80;1.33;;;;;;;22.40;57.52;100260.38;18564758;32;20364;-54
2022/07/31 12:52:36;;;;;;;2.53;1.50;;;;;;;21.93;58.88;100244.22;18564278;32;20092;-54
2022/07/31 13:02:41;;;;;;;2.50;1.37;;;;;;;21.81;59.59;100250.16;18549130;32;20464;-54
2022/07/31 13:12:49;;;;;;;3.97;1.60;;;;;;;21.72;60.26;100246.19;18563258;32;20127;-54
2022/07/31 13:22:52;;;;;;;4.28;1.60;;;;;;;21.42;61.51;100247.63;18593939;31;20080;-54
2022/07/31 13:32:56;;;;;;;2.60;1.40;;;;;;;21.45;61.63;100250.16;18590836;31;20095;-54
2022/07/31 13:42:59;;;;;;;3.10;1.50;;;;;;;21.42;61.07;100247.63;18590572;31;20352;-54
2022/07/31 13:53:04;;;;;;;3.95;1.70;;;;;;;21.56;59.75;100238.13;18589153;31;20708;-54
2022/07/31 14:03:08;;;;;;;2.75;1.58;;;;;;;21.18;59.60;100239.97;18589797;31;20127;-55
2022/07/31 14:13:13;;;;;;;1.40;1.25;;;;;;;21.25;59.15;100245.81;18575293;31;20412;-55
2022/07/31 14:23:16;;;;;;;2.92;1.37;;;;;;;21.25;58.23;100237.00;18622902;31;20110;-54
2022/07/31 14:33:20;;;;;;;3.42;1.95;;;;;;;21.11;58.05;100248.31;18670431;31;20088;-55
2022/07/31 14:43:24;;;;;;;2.75;1.60;;;;;;;20.28;62.17;100275.09;18687662;31;20427;-56
2022/07/31 14:53:28;;;;;;;1.92;1.33;;;;;;;19.92;64.23;100273.97;18689912;31;20155;-54
2022/07/31 15:03:31;;;;;;;3.35;1.50;;;;;;;19.85;65.17;100276.00;18689672;31;20419;-56
2022/07/31 15:13:36;;;;;;;1.77;1.20;;;;;;;19.74;64.48;100268.53;18686275;31;20110;-56
2022/07/31 15:23:41;;;;;;;2.60;1.55;;;;;;;20.07;63.97;100269.81;18687040;31;20669;-55
2022/07/31 15:33:45;;;;;;;3.55;1.70;;;;;;;20.20;63.59;100257.72;18687832;31;20121;-56
2022/07/31 15:43:48;;;;;;;2.65;1.35;;;;;;;20.52;62.88;100259.84;18674272;31;20379;-56
2022/07/31 15:53:53;;;;;;;4.90;1.60;;;;;;;20.79;62.86;100241.78;18649743;31;20091;-56
2022/07/31 16:03:57;;;;;;;2.67;1.50;;;;;;;21.14;61.55;100243.69;18693506;31;20395;-56
2022/07/31 16:14:02;;;;;;;3.12;1.35;;;;;;;20.97;61.53;100233.06;18694108;31;20092;-56
2022/07/31 16:24:06;;;;;;;3.30;1.77;;;;;;;21.10;61.57;100231.50;18638408;31;20100;-56
2022/07/31 16:34:10;;;;;;;3.55;1.62;;;;;;;20.99;63.08;100236.50;18627711;31;20104;-56
2022/07/31 16:44:14;;;;;;;3.70;1.95;;;;;;;21.04;61.20;100226.50;18626569;31;20719;-55
2022/07/31 16:54:23;;;;;;;2.67;1.52;;;;;;;21.13;60.72;100220.72;18626322;31;20120;-56
2022/07/31 17:04:26;;;;;;;3.30;1.80;;;;;;;21.09;62.24;100221.84;18582449;31;20111;-56
2022/07/31 17:14:31;;;;;;;5.03;1.90;;;;;;;21.02;62.98;100229.25;18576938;31;20128;-56
2022/07/31 17:24:35;;;;;;;3.62;1.62;;;;;;;21.15;63.37;100218.88;18589889;31;20100;-56
2022/07/31 17:34:43;;;;;;;2.95;1.70;;;;;;;20.93;64.11;100230.53;18562815;31;20091;-55
2022/07/31 17:44:47;;;;;;;2.22;1.52;;;;;;;20.97;64.82;100231.25;18559412;32;20135;-56
2022/07/31 17:54:56;;;;;;;4.80;1.90;;;;;;;21.07;63.46;100244.94;18559048;32;20097;-55
2022/07/31 18:04:59;;;;;;;3.90;2.03;;;;;;;21.01;64.38;100245.22;18557753;32;20100;-56
2022/07/31 18:15:05;;;;;;;6.72;2.47;;;;;;;20.94;65.87;100247.31;18598688;31;20092;-56
2022/07/31 18:25:09;;;;;;;3.08;1.98;;;;;;;20.92;64.62;100268.63;18620745;31;20132;-55
2022/07/31 18:35:14;;;;;;;4.12;2.00;;;;;;;20.83;65.09;100252.28;18616315;31;20112;-55
2022/07/31 18:45:17;;;;;;;3.40;1.92;;;;;;;20.71;65.95;100285.53;18589903;31;20096;-55
2022/07/31 18:55:22;;;;;;;3.72;1.77;;;;;;;20.74;65.78;100275.63;18554275;31;20171;-55
2022/07/31 19:05:26;;;;;;;4.62;2.53;;;;;;;20.71;65.01;100291.66;18619998;31;20364;-55
2022/07/31 19:15:30;;;;;;;3.35;1.90;;;;;;;20.56;64.68;100306.50;18622792;31;20118;-55
2022/07/31 19:25:35;;;;;;;4.30;2.05;;;;;;;20.49;64.88;100307.72;18674117;31;20100;-55
2022/07/31 19:36:00;;;;;;;4.60;2.10;;;;;;;20.45;64.90;100325.56;18695296;31;20106;-55
2022/07/31 19:46:05;;;;;;;4.93;2.05;;;;;;;20.34;64.86;100312.78;18616548;31;20438;-55
2022/07/31 19:56:16;;;;;;;4.07;2.17;;;;;;;20.22;65.38;100313.31;18564463;32;20162;-55
2022/07/31 20:06:23;;;;;;;3.12;1.90;;;;;;;20.20;65.75;100284.22;18563018;32;20093;-55
2022/07/31 20:16:32;;;;;;;2.45;1.70;;;;;;;20.23;65.80;100293.84;18554225;31;20490;-55
2022/07/31 20:26:35;;;;;;;3.30;1.90;;;;;;;20.10;66.12;100286.41;18591295;31;20087;-55
2022/07/31 20:36:40;;;;;;;3.60;1.85;;;;;;;20.05;66.57;100288.44;18583461;31;20403;-55
2022/07/31 20:46:44;;;;;;;2.78;1.73;;;;;;;20.02;66.00;100290.34;18581424;31;20116;-56
2022/07/31 20:56:49;;;;;;;7.00;2.10;;;;;;;20.04;65.81;100288.47;18590978;31;20122;-55
2022/07/31 21:06:52;;;;;;;4.43;1.92;;;;;;;19.91;65.49;100293.41;18589574;31;20112;-55
2022/07/31 21:16:57;;;;;;;4.05;1.70;;;;;;;19.98;66.12;100283.47;18588314;31;20112;-55
2022/07/31 21:27:01;;;;;;;3.50;1.87;;;;;;;20.01;66.20;100284.16;18591957;31;20132;-56
2022/07/31 21:37:07;;;;;;;4.12;2.12;;;;;;;20.10;65.89;100297.00;18616285;31;20163;-55
2022/07/31 21:47:21;;;;;;;4.78;2.00;;;;;;;20.00;65.90;100293.03;18594378;31;20144;-55
2022/07/31 21:57:26;;;;;;;3.47;1.70;;;;;;;20.01;65.30;100294.75;18608239;31;20455;-55
2022/07/31 22:07:50;;;;;;;3.80;1.80;;;;;;;19.82;65.18;100306.16;18605509;31;20124;-55
2022/07/31 22:17:55;;;;;;;3.55;1.92;;;;;;;19.68;65.52;100309.38;18601525;31;20108;-55
2022/07/31 22:27:58;;;;;;;3.03;1.77;;;;;;;19.72;65.47;100320.69;18575882;31;20088;-55
2022/07/31 22:38:03;;;;;;;3.40;1.60;;;;;;;19.75;65.16;100309.09;18589818;31;20102;-55
2022/07/31 22:48:09;;;;;;;4.35;2.00;;;;;;;19.50;65.66;100316.28;18590230;31;20131;-55
2022/07/31 22:58:14;;;;;;;3.62;1.98;;;;;;;19.31;65.60;100310.88;18584211;31;20091;-55
2022/07/31 23:08:17;;;;;;;3.87;1.60;;;;;;;19.12;65.74;100305.44;18631025;31;20096;-55
2022/07/31 23:18:21;;;;;;;2.90;1.60;;;;;;;18.72;66.55;100311.34;18665633;31;20138;-55
2022/07/31 23:28:25;;;;;;;3.30;1.90;;;;;;;18.93;64.11;100305.28;18624092;31;20104;-55
2022/07/31 23:38:29;;;;;;;3.95;1.75;;;;;;;18.97;63.66;100310.41;18652253;31;20087;-55
2022/07/31 23:48:35;;;;;;;2.22;1.48;;;;;;;18.65;64.30;100304.53;18687579;31;20375;-55
2022/07/31 23:58:42;;;;;;;3.47;1.80;;;;;;;18.71;63.83;100295.50;18687168;31;20088;-55
